sensor_id;sensor_type;location;lat;lon;timestamp;pressure;altitude;pressure_sealevel;temperature;humidity
72570;BME280;60594;50.204;8.844;2023-03-23T00:00:22;99151.56;;;14.02;56.18
72570;BME280;60594;50.204;8.844;2023-03-23T00:03:09;99147.72;;;14.04;56.26
72570;BME280;60594;50.204;8.844;2023-03-23T00:05:38;99156.75;;;14.03;56.12
72570;BME280;60594;50.204;8.844;2023-03-23T00:08:07;99161.09;;;14.04;56.08
72570;BME280;60594;50.204;8.844;2023-03-23T00:10:39;99160.47;;;14.02;56.21
72570;BME280;60594;50.204;8.844;2023-03-23T00:13:06;99160.78;;;14.07;55.72
72570;BME280;60594;50.204;8.844;2023-03-23T00:15:35;99154.09;;;14.03;56.63
72570;BME280;60594;50.204;8.844;2023-03-23T00:18:02;99157.09;;;14.00;56.82
72570;BME280;60594;50.204;8.844;2023-03-23T00:20:29;99143.22;;;13.97;56.57
72570;BME280;60594;50.204;8.844;2023-03-23T00:22:56;99162.78;;;14.05;56.26
72570;BME280;60594;50.204;8.844;2023-03-23T00:25:26;99155.41;;;14.07;56.28
72570;BME280;60594;50.204;8.844;2023-03-23T00:27:53;99155.25;;;14.01;56.72
72570;BME280;60594;50.204;8.844;2023-03-23T00:30:21;99153.75;;;14.06;56.30
72570;BME280;60594;50.204;8.844;2023-03-23T00:32:49;99153.41;;;14.01;56.95
72570;BME280;60594;50.204;8.844;2023-03-23T00:35:17;99155.09;;;13.94;57.04
72570;BME280;60594;50.204;8.844;2023-03-23T00:37:43;99132.50;;;13.89;57.84
72570;BME280;60594;50.204;8.844;2023-03-23T00:40:10;99146.41;;;13.92;57.38
72570;BME280;60594;50.204;8.844;2023-03-23T00:42:38;99146.72;;;13.89;57.83
72570;BME280;60594;50.204;8.844;2023-03-23T00:45:06;99144.91;;;13.82;58.17
72570;BME280;60594;50.204;8.844;2023-03-23T00:47:37;99131.69;;;13.80;57.83
72570;BME280;60594;50.204;8.844;2023-03-23T00:50:05;99138.88;;;13.88;57.67
72570;BME280;60594;50.204;8.844;2023-03-23T00:52:32;99137.69;;;13.90;57.55
72570;BME280;60594;50.204;8.844;2023-03-23T00:54:59;99140.53;;;13.89;57.74
72570;BME280;60594;50.204;8.844;2023-03-23T00:57:25;99136.19;;;13.88;57.68
72570;BME280;60594;50.204;8.844;2023-03-23T00:59:52;99118.44;;;13.87;57.56
72570;BME280;60594;50.204;8.844;2023-03-23T01:02:18;99125.63;;;13.86;57.52
72570;BME280;60594;50.204;8.844;2023-03-23T01:04:47;99120.81;;;13.82;57.67
72570;BME280;60594;50.204;8.844;2023-03-23T01:07:21;99122.97;;;13.78;58.14
72570;BME280;60594;50.204;8.844;2023-03-23T01:09:50;99122.50;;;13.75;58.07
72570;BME280;60594;50.204;8.844;2023-03-23T01:12:21;99117.47;;;13.72;57.71
72570;BME280;60594;50.204;8.844;2023-03-23T01:14:50;99120.97;;;13.72;58.31
72570;BME280;60594;50.204;8.844;2023-03-23T01:17:18;99110.94;;;13.74;58.07
72570;BME280;60594;50.204;8.844;2023-03-23T01:19:46;99124.50;;;13.73;58.36
72570;BME280;60594;50.204;8.844;2023-03-23T01:22:12;99113.94;;;13.71;58.39
72570;BME280;60594;50.204;8.844;2023-03-23T01:24:39;99106.75;;;13.72;58.65
72570;BME280;60594;50.204;8.844;2023-03-23T01:27:07;99104.56;;;13.75;58.42
72570;BME280;60594;50.204;8.844;2023-03-23T01:29:35;99102.72;;;13.76;58.40
72570;BME280;60594;50.204;8.844;2023-03-23T01:32:02;99104.09;;;13.72;58.76
72570;BME280;60594;50.204;8.844;2023-03-23T01:34:29;99106.59;;;13.73;58.58
72570;BME280;60594;50.204;8.844;2023-03-23T01:36:56;99106.56;;;13.81;58.32
72570;BME280;60594;50.204;8.844;2023-03-23T01:39:23;99112.94;;;13.80;58.50
72570;BME280;60594;50.204;8.844;2023-03-23T01:41:50;99115.09;;;13.77;59.12
72570;BME280;60594;50.204;8.844;2023-03-23T01:47:20;99110.94;;;13.74;59.19
72570;BME280;60594;50.204;8.844;2023-03-23T01:49:50;99105.25;;;13.69;59.27
72570;BME280;60594;50.204;8.844;2023-03-23T01:52:22;99099.38;;;13.65;59.63
72570;BME280;60594;50.204;8.844;2023-03-23T01:54:54;99105.25;;;13.61;60.11
72570;BME280;60594;50.204;8.844;2023-03-23T01:57:23;99093.53;;;13.70;59.07
72570;BME280;60594;50.204;8.844;2023-03-23T01:59:54;99102.22;;;13.72;59.72
72570;BME280;60594;50.204;8.844;2023-03-23T02:02:25;99108.94;;;13.76;59.48
72570;BME280;60594;50.204;8.844;2023-03-23T02:05:21;99107.94;;;13.69;59.62
72570;BME280;60594;50.204;8.844;2023-03-23T02:07:51;99105.09;;;13.71;59.63
72570;BME280;60594;50.204;8.844;2023-03-23T02:10:21;99102.56;;;13.61;60.24
72570;BME280;60594;50.204;8.844;2023-03-23T02:12:47;99102.75;;;13.59;59.94
72570;BME280;60594;50.204;8.844;2023-03-23T02:15:14;99102.41;;;13.62;60.04
72570;BME280;60594;50.204;8.844;2023-03-23T02:23:28;99106.78;;;13.63;60.31
72570;BME280;60594;50.204;8.844;2023-03-23T02:26:37;99094.91;;;13.58;60.50
72570;BME280;60594;50.204;8.844;2023-03-23T02:29:22;99092.88;;;13.60;59.58
72570;BME280;60594;50.204;8.844;2023-03-23T02:32:22;99097.22;;;13.61;60.01
72570;BME280;60594;50.204;8.844;2023-03-23T02:35:01;99084.84;;;13.60;59.71
72570;BME280;60594;50.204;8.844;2023-03-23T02:37:34;99074.28;;;13.58;60.24
72570;BME280;60594;50.204;8.844;2023-03-23T02:40:06;99061.06;;;13.57;60.22
72570;BME280;60594;50.204;8.844;2023-03-23T02:42:38;99061.44;;;13.54;60.49
72570;BME280;60594;50.204;8.844;2023-03-23T02:45:09;99062.75;;;13.50;60.07
72570;BME280;60594;50.204;8.844;2023-03-23T02:47:38;99069.28;;;13.47;60.61
72570;BME280;60594;50.204;8.844;2023-03-23T02:50:07;99078.66;;;13.35;62.63
72570;BME280;60594;50.204;8.844;2023-03-23T02:52:39;99080.34;;;13.20;64.59
72570;BME280;60594;50.204;8.844;2023-03-23T02:55:08;99083.69;;;13.14;65.78
72570;BME280;60594;50.204;8.844;2023-03-23T02:57:38;99088.69;;;13.01;66.29
72570;BME280;60594;50.204;8.844;2023-03-23T03:00:07;99095.66;;;12.86;68.73
72570;BME280;60594;50.204;8.844;2023-03-23T03:02:39;99090.78;;;12.66;71.39
72570;BME280;60594;50.204;8.844;2023-03-23T03:11:09;99089.31;;;12.30;75.58
72570;BME280;60594;50.204;8.844;2023-03-23T03:16:38;99090.66;;;12.34;73.75
72570;BME280;60594;50.204;8.844;2023-03-23T03:19:26;99080.41;;;12.21;73.66
72570;BME280;60594;50.204;8.844;2023-03-23T03:21:56;99082.22;;;12.21;75.40
72570;BME280;60594;50.204;8.844;2023-03-23T03:24:34;99068.69;;;12.14;74.90
72570;BME280;60594;50.204;8.844;2023-03-23T03:27:04;99073.31;;;12.04;77.17
72570;BME280;60594;50.204;8.844;2023-03-23T03:29:47;99071.75;;;11.94;78.08
72570;BME280;60594;50.204;8.844;2023-03-23T03:32:22;99068.75;;;11.89;79.78
72570;BME280;60594;50.204;8.844;2023-03-23T03:34:52;99066.81;;;11.73;80.20
72570;BME280;60594;50.204;8.844;2023-03-23T03:37:19;99061.16;;;11.76;80.58
72570;BME280;60594;50.204;8.844;2023-03-23T03:39:48;99072.69;;;11.59;81.24
72570;BME280;60594;50.204;8.844;2023-03-23T03:42:14;99057.44;;;11.44;85.53
72570;BME280;60594;50.204;8.844;2023-03-23T03:44:41;99062.91;;;11.42;85.33
72570;BME280;60594;50.204;8.844;2023-03-23T03:47:07;99069.22;;;11.41;84.48
72570;BME280;60594;50.204;8.844;2023-03-23T03:49:34;99071.88;;;11.41;83.62
72570;BME280;60594;50.204;8.844;2023-03-23T03:52:01;99081.94;;;11.47;83.50
72570;BME280;60594;50.204;8.844;2023-03-23T03:54:41;99089.25;;;11.45;83.17
72570;BME280;60594;50.204;8.844;2023-03-23T03:57:08;99085.78;;;11.45;83.27
72570;BME280;60594;50.204;8.844;2023-03-23T03:59:40;99074.09;;;11.46;82.70
72570;BME280;60594;50.204;8.844;2023-03-23T04:02:16;99079.13;;;11.49;83.93
72570;BME280;60594;50.204;8.844;2023-03-23T04:04:47;99076.47;;;11.49;83.25
72570;BME280;60594;50.204;8.844;2023-03-23T04:07:14;99077.97;;;11.51;82.38
72570;BME280;60594;50.204;8.844;2023-03-23T04:09:46;99080.34;;;11.54;82.64
72570;BME280;60594;50.204;8.844;2023-03-23T04:12:15;99082.25;;;11.62;80.73
72570;BME280;60594;50.204;8.844;2023-03-23T04:15:08;99077.50;;;11.73;81.47
72570;BME280;60594;50.204;8.844;2023-03-23T04:17:36;99084.19;;;11.77;81.69
72570;BME280;60594;50.204;8.844;2023-03-23T04:20:05;99066.69;;;11.83;79.86
72570;BME280;60594;50.204;8.844;2023-03-23T04:22:38;99077.78;;;11.96;78.26
72570;BME280;60594;50.204;8.844;2023-03-23T04:25:05;99083.19;;;12.04;78.47
72570;BME280;60594;50.204;8.844;2023-03-23T04:27:36;99080.81;;;12.01;78.37
72570;BME280;60594;50.204;8.844;2023-03-23T04:30:05;99076.47;;;12.00;78.98
72570;BME280;60594;50.204;8.844;2023-03-23T04:32:48;99079.13;;;11.92;79.25
72570;BME280;60594;50.204;8.844;2023-03-23T04:35:24;99087.59;;;11.87;79.61
72570;BME280;60594;50.204;8.844;2023-03-23T04:38:06;99084.88;;;11.79;80.90
72570;BME280;60594;50.204;8.844;2023-03-23T04:40:36;99090.69;;;11.75;81.40
72570;BME280;60594;50.204;8.844;2023-03-23T04:43:22;99098.53;;;11.76;81.07
72570;BME280;60594;50.204;8.844;2023-03-23T04:45:59;99093.94;;;11.86;78.99
72570;BME280;60594;50.204;8.844;2023-03-23T04:48:29;99101.41;;;12.08;77.16
72570;BME280;60594;50.204;8.844;2023-03-23T04:51:05;99100.78;;;12.22;76.33
72570;BME280;60594;50.204;8.844;2023-03-23T04:53:32;99097.28;;;12.22;76.73
72570;BME280;60594;50.204;8.844;2023-03-23T04:55:59;99101.31;;;12.26;76.51
72570;BME280;60594;50.204;8.844;2023-03-23T04:58:31;99107.13;;;12.21;76.43
72570;BME280;60594;50.204;8.844;2023-03-23T05:01:18;99110.81;;;12.20;77.19
72570;BME280;60594;50.204;8.844;2023-03-23T05:03:55;99109.44;;;12.16;77.38
72570;BME280;60594;50.204;8.844;2023-03-23T05:06:22;99110.59;;;12.14;76.77
72570;BME280;60594;50.204;8.844;2023-03-23T05:08:53;99102.59;;;12.14;77.08
72570;BME280;60594;50.204;8.844;2023-03-23T05:11:22;99104.56;;;12.12;77.42
72570;BME280;60594;50.204;8.844;2023-03-23T05:13:49;99101.03;;;12.03;78.79
72570;BME280;60594;50.204;8.844;2023-03-23T05:16:16;99102.38;;;12.07;77.05
72570;BME280;60594;50.204;8.844;2023-03-23T05:18:43;99095.06;;;12.09;76.87
72570;BME280;60594;50.204;8.844;2023-03-23T05:21:15;99108.72;;;12.06;77.84
72570;BME280;60594;50.204;8.844;2023-03-23T05:23:46;99112.09;;;12.08;77.37
72570;BME280;60594;50.204;8.844;2023-03-23T05:26:18;99105.78;;;12.17;76.71
72570;BME280;60594;50.204;8.844;2023-03-23T05:28:45;99117.66;;;12.23;77.31
72570;BME280;60594;50.204;8.844;2023-03-23T05:31:20;99112.47;;;12.21;77.73
72570;BME280;60594;50.204;8.844;2023-03-23T05:33:47;99107.56;;;12.09;77.84
72570;BME280;60594;50.204;8.844;2023-03-23T05:36:17;99108.22;;;12.03;79.72
72570;BME280;60594;50.204;8.844;2023-03-23T05:39:01;99101.75;;;12.13;79.07
72570;BME280;60594;50.204;8.844;2023-03-23T05:41:40;99103.66;;;11.95;80.62
72570;BME280;60594;50.204;8.844;2023-03-23T05:44:07;99099.78;;;11.90;82.06
72570;BME280;60594;50.204;8.844;2023-03-23T05:46:46;99105.38;;;11.79;81.67
72570;BME280;60594;50.204;8.844;2023-03-23T05:49:14;99104.50;;;11.70;82.81
72570;BME280;60594;50.204;8.844;2023-03-23T05:51:44;99106.09;;;11.63;83.04
72570;BME280;60594;50.204;8.844;2023-03-23T05:54:13;99105.88;;;11.57;83.57
72570;BME280;60594;50.204;8.844;2023-03-23T05:56:42;99111.00;;;11.50;83.81
72570;BME280;60594;50.204;8.844;2023-03-23T05:59:11;99109.09;;;11.43;85.82
72570;BME280;60594;50.204;8.844;2023-03-23T06:01:40;99114.97;;;11.46;84.80
72570;BME280;60594;50.204;8.844;2023-03-23T06:04:06;99115.28;;;11.43;85.13
72570;BME280;60594;50.204;8.844;2023-03-23T06:06:40;99122.13;;;11.46;85.18
72570;BME280;60594;50.204;8.844;2023-03-23T06:09:09;99127.50;;;11.54;85.64
72570;BME280;60594;50.204;8.844;2023-03-23T06:11:46;99130.88;;;11.56;85.99
72570;BME280;60594;50.204;8.844;2023-03-23T06:14:51;99130.50;;;11.51;86.01
72570;BME280;60594;50.204;8.844;2023-03-23T06:17:24;99137.72;;;11.58;85.30
72570;BME280;60594;50.204;8.844;2023-03-23T06:19:53;99139.41;;;11.59;84.96
72570;BME280;60594;50.204;8.844;2023-03-23T06:22:21;99137.97;;;11.65;85.33
72570;BME280;60594;50.204;8.844;2023-03-23T06:25:09;99152.38;;;11.72;84.86
72570;BME280;60594;50.204;8.844;2023-03-23T06:27:40;99148.88;;;11.71;85.61
72570;BME280;60594;50.204;8.844;2023-03-23T06:30:08;99141.91;;;11.78;83.58
72570;BME280;60594;50.204;8.844;2023-03-23T06:32:37;99143.75;;;11.78;83.67
72570;BME280;60594;50.204;8.844;2023-03-23T06:35:09;99148.09;;;11.79;84.98
72570;BME280;60594;50.204;8.844;2023-03-23T06:37:57;99136.72;;;11.59;85.34
72570;BME280;60594;50.204;8.844;2023-03-23T06:40:47;99149.72;;;11.54;87.57
72570;BME280;60594;50.204;8.844;2023-03-23T06:43:15;99146.13;;;11.46;89.75
72570;BME280;60594;50.204;8.844;2023-03-23T06:45:50;99144.56;;;11.35;89.79
72570;BME280;60594;50.204;8.844;2023-03-23T06:48:36;99143.94;;;11.24;90.56
72570;BME280;60594;50.204;8.844;2023-03-23T06:51:04;99142.34;;;11.13;92.70
72570;BME280;60594;50.204;8.844;2023-03-23T06:53:33;99137.84;;;11.14;92.32
72570;BME280;60594;50.204;8.844;2023-03-23T06:56:00;99145.00;;;11.13;91.43
72570;BME280;60594;50.204;8.844;2023-03-23T06:58:27;99160.03;;;11.14;92.56
72570;BME280;60594;50.204;8.844;2023-03-23T07:00:57;99156.34;;;11.15;92.02
72570;BME280;60594;50.204;8.844;2023-03-23T07:03:31;99153.53;;;11.17;91.83
72570;BME280;60594;50.204;8.844;2023-03-23T07:05:59;99165.06;;;11.17;91.93
72570;BME280;60594;50.204;8.844;2023-03-23T07:08:30;99154.38;;;11.17;93.15
72570;BME280;60594;50.204;8.844;2023-03-23T07:10:56;99158.56;;;11.20;93.53
72570;BME280;60594;50.204;8.844;2023-03-23T07:13:27;99153.38;;;11.18;93.34
72570;BME280;60594;50.204;8.844;2023-03-23T07:15:58;99162.38;;;11.17;93.77
72570;BME280;60594;50.204;8.844;2023-03-23T07:18:26;99160.03;;;11.14;94.42
72570;BME280;60594;50.204;8.844;2023-03-23T07:20:55;99151.03;;;11.15;94.48
72570;BME280;60594;50.204;8.844;2023-03-23T07:23:29;99156.59;;;11.22;93.85
72570;BME280;60594;50.204;8.844;2023-03-23T07:26:03;99166.63;;;11.28;94.27
72570;BME280;60594;50.204;8.844;2023-03-23T07:28:37;99166.72;;;11.36;93.57
72570;BME280;60594;50.204;8.844;2023-03-23T07:31:22;99165.97;;;11.43;93.94
72570;BME280;60594;50.204;8.844;2023-03-23T07:33:49;99168.25;;;11.38;93.95
72570;BME280;60594;50.204;8.844;2023-03-23T07:36:19;99160.00;;;11.32;95.82
72570;BME280;60594;50.204;8.844;2023-03-23T07:38:47;99164.44;;;11.41;94.45
72570;BME280;60594;50.204;8.844;2023-03-23T07:41:14;99160.78;;;11.42;94.43
72570;BME280;60594;50.204;8.844;2023-03-23T07:43:43;99168.94;;;11.40;94.50
72570;BME280;60594;50.204;8.844;2023-03-23T07:46:09;99170.44;;;11.43;94.32
72570;BME280;60594;50.204;8.844;2023-03-23T07:48:55;99161.09;;;11.21;96.18
72570;BME280;60594;50.204;8.844;2023-03-23T07:51:26;99183.72;;;11.17;97.33
72570;BME280;60594;50.204;8.844;2023-03-23T07:53:54;99188.28;;;11.25;97.77
72570;BME280;60594;50.204;8.844;2023-03-23T07:56:39;99181.56;;;11.21;96.82
72570;BME280;60594;50.204;8.844;2023-03-23T07:59:12;99192.09;;;11.22;97.98
72570;BME280;60594;50.204;8.844;2023-03-23T08:01:40;99194.00;;;11.30;97.46
72570;BME280;60594;50.204;8.844;2023-03-23T08:04:35;99188.53;;;11.31;97.09
72570;BME280;60594;50.204;8.844;2023-03-23T08:07:14;99196.06;;;11.36;95.90
72570;BME280;60594;50.204;8.844;2023-03-23T08:09:49;99201.66;;;11.42;95.67
72570;BME280;60594;50.204;8.844;2023-03-23T08:12:31;99195.16;;;11.45;94.75
72570;BME280;60594;50.204;8.844;2023-03-23T08:15:27;99204.75;;;11.55;94.79
72570;BME280;60594;50.204;8.844;2023-03-23T08:18:17;99183.41;;;11.55;93.48
72570;BME280;60594;50.204;8.844;2023-03-23T08:21:06;99206.53;;;11.64;93.74
72570;BME280;60594;50.204;8.844;2023-03-23T08:23:46;99210.34;;;11.62;93.82
72570;BME280;60594;50.204;8.844;2023-03-23T08:26:19;99217.75;;;11.68;93.56
72570;BME280;60594;50.204;8.844;2023-03-23T08:29:14;99220.47;;;11.76;92.72
72570;BME280;60594;50.204;8.844;2023-03-23T08:31:59;99215.06;;;11.68;92.75
72570;BME280;60594;50.204;8.844;2023-03-23T08:34:43;99215.63;;;11.71;92.46
72570;BME280;60594;50.204;8.844;2023-03-23T08:37:28;99225.16;;;11.74;92.08
72570;BME280;60594;50.204;8.844;2023-03-23T08:40:14;99223.34;;;11.82;90.66
72570;BME280;60594;50.204;8.844;2023-03-23T08:42:53;99228.63;;;11.92;91.07
72570;BME280;60594;50.204;8.844;2023-03-23T08:45:35;99228.94;;;11.89;91.20
72570;BME280;60594;50.204;8.844;2023-03-23T08:48:30;99224.97;;;11.93;90.44
72570;BME280;60594;50.204;8.844;2023-03-23T08:51:20;99240.28;;;11.91;90.18
72570;BME280;60594;50.204;8.844;2023-03-23T08:53:58;99243.50;;;11.94;89.38
72570;BME280;60594;50.204;8.844;2023-03-23T08:56:43;99249.19;;;11.99;89.47
72570;BME280;60594;50.204;8.844;2023-03-23T08:59:10;99250.06;;;12.00;89.32
72570;BME280;60594;50.204;8.844;2023-03-23T09:01:44;99247.38;;;12.00;89.37
72570;BME280;60594;50.204;8.844;2023-03-23T09:04:26;99247.28;;;12.09;89.98
72570;BME280;60594;50.204;8.844;2023-03-23T09:07:11;99245.91;;;12.05;88.55
72570;BME280;60594;50.204;8.844;2023-03-23T09:09:41;99235.69;;;12.01;88.86
72570;BME280;60594;50.204;8.844;2023-03-23T09:12:08;99226.75;;;12.10;88.91
72570;BME280;60594;50.204;8.844;2023-03-23T09:14:36;99230.31;;;12.18;88.96
72570;BME280;60594;50.204;8.844;2023-03-23T09:17:04;99230.09;;;12.12;88.70
72570;BME280;60594;50.204;8.844;2023-03-23T09:19:33;99223.44;;;12.16;88.57
72570;BME280;60594;50.204;8.844;2023-03-23T09:22:00;99224.16;;;12.18;88.63
72570;BME280;60594;50.204;8.844;2023-03-23T09:24:27;99217.75;;;12.11;88.83
72570;BME280;60594;50.204;8.844;2023-03-23T09:26:54;99227.44;;;12.12;89.11
72570;BME280;60594;50.204;8.844;2023-03-23T09:29:20;99226.13;;;12.16;88.63
72570;BME280;60594;50.204;8.844;2023-03-23T09:31:47;99224.31;;;12.16;87.24
72570;BME280;60594;50.204;8.844;2023-03-23T09:34:14;99232.81;;;12.20;87.75
72570;BME280;60594;50.204;8.844;2023-03-23T09:36:44;99223.50;;;12.24;88.61
72570;BME280;60594;50.204;8.844;2023-03-23T09:39:11;99227.53;;;12.28;88.21
72570;BME280;60594;50.204;8.844;2023-03-23T09:45:02;99243.84;;;12.42;87.01
72570;BME280;60594;50.204;8.844;2023-03-23T09:47:58;99248.53;;;12.48;86.44
72570;BME280;60594;50.204;8.844;2023-03-23T09:50:29;99248.91;;;12.53;84.90
72570;BME280;60594;50.204;8.844;2023-03-23T09:53:03;99244.13;;;12.65;84.56
72570;BME280;60594;50.204;8.844;2023-03-23T09:55:31;99246.84;;;12.73;84.78
72570;BME280;60594;50.204;8.844;2023-03-23T09:58:02;99242.56;;;12.88;83.96
72570;BME280;60594;50.204;8.844;2023-03-23T10:00:39;99240.75;;;12.96;83.46
72570;BME280;60594;50.204;8.844;2023-03-23T10:05:48;99242.38;;;13.23;82.88
72570;BME280;60594;50.204;8.844;2023-03-23T10:08:23;99242.59;;;13.37;80.74
72570;BME280;60594;50.204;8.844;2023-03-23T10:13:44;99251.63;;;13.36;76.59
72570;BME280;60594;50.204;8.844;2023-03-23T10:16:18;99243.22;;;13.23;76.59
72570;BME280;60594;50.204;8.844;2023-03-23T10:19:07;99246.06;;;13.14;78.05
72570;BME280;60594;50.204;8.844;2023-03-23T10:21:41;99248.06;;;13.20;79.85
72570;BME280;60594;50.204;8.844;2023-03-23T10:24:10;99248.72;;;13.06;78.59
72570;BME280;60594;50.204;8.844;2023-03-23T10:29:15;99244.44;;;12.95;81.98
72570;BME280;60594;50.204;8.844;2023-03-23T10:31:53;99260.38;;;13.05;83.41
72570;BME280;60594;50.204;8.844;2023-03-23T10:34:32;99266.66;;;12.88;84.59
72570;BME280;60594;50.204;8.844;2023-03-23T10:37:10;99262.81;;;12.90;83.76
72570;BME280;60594;50.204;8.844;2023-03-23T10:39:47;99265.59;;;12.81;84.47
72570;BME280;60594;50.204;8.844;2023-03-23T10:42:22;99269.31;;;12.88;84.58
72570;BME280;60594;50.204;8.844;2023-03-23T10:44:51;99269.47;;;12.86;84.88
72570;BME280;60594;50.204;8.844;2023-03-23T10:47:18;99275.38;;;12.98;83.46
72570;BME280;60594;50.204;8.844;2023-03-23T10:49:51;99278.44;;;13.03;82.62
72570;BME280;60594;50.204;8.844;2023-03-23T10:52:40;99267.66;;;13.28;81.46
72570;BME280;60594;50.204;8.844;2023-03-23T10:55:17;99271.22;;;13.45;79.82
72570;BME280;60594;50.204;8.844;2023-03-23T10:58:00;99263.22;;;13.61;78.47
72570;BME280;60594;50.204;8.844;2023-03-23T11:00:28;99264.59;;;13.65;78.47
72570;BME280;60594;50.204;8.844;2023-03-23T11:03:07;99256.34;;;13.58;77.99
72570;BME280;60594;50.204;8.844;2023-03-23T11:05:52;99266.19;;;13.42;76.97
72570;BME280;60594;50.204;8.844;2023-03-23T11:08:22;99263.81;;;13.39;79.67
72570;BME280;60594;50.204;8.844;2023-03-23T11:10:52;99269.16;;;13.31;79.23
72570;BME280;60594;50.204;8.844;2023-03-23T11:13:23;99265.75;;;13.13;79.40
72570;BME280;60594;50.204;8.844;2023-03-23T11:15:53;99276.44;;;13.05;79.40
72570;BME280;60594;50.204;8.844;2023-03-23T11:20:54;99283.63;;;13.04;80.37
72570;BME280;60594;50.204;8.844;2023-03-23T11:23:24;99288.22;;;12.94;82.37
72570;BME280;60594;50.204;8.844;2023-03-23T11:28:37;99287.31;;;12.78;82.78
72570;BME280;60594;50.204;8.844;2023-03-23T11:31:06;99291.16;;;12.75;82.93
72570;BME280;60594;50.204;8.844;2023-03-23T11:36:50;99282.28;;;13.00;82.44
72570;BME280;60594;50.204;8.844;2023-03-23T11:41:57;99263.88;;;13.55;79.64
72570;BME280;60594;50.204;8.844;2023-03-23T11:44:32;99250.50;;;13.71;77.97
72570;BME280;60594;50.204;8.844;2023-03-23T11:47:07;99252.53;;;13.77;78.32
72570;BME280;60594;50.204;8.844;2023-03-23T11:52:40;99255.03;;;13.95;77.98
72570;BME280;60594;50.204;8.844;2023-03-23T11:55:23;99259.22;;;14.05;76.59
72570;BME280;60594;50.204;8.844;2023-03-23T11:57:52;99255.38;;;13.68;77.09
72570;BME280;60594;50.204;8.844;2023-03-23T12:00:21;99256.53;;;13.65;77.07
72570;BME280;60594;50.204;8.844;2023-03-23T12:02:56;99263.41;;;13.68;77.03
72570;BME280;60594;50.204;8.844;2023-03-23T12:16:27;99251.13;;;13.41;78.52
72570;BME280;60594;50.204;8.844;2023-03-23T12:27:09;99245.16;;;13.55;78.83
72570;BME280;60594;50.204;8.844;2023-03-23T12:35:37;99233.63;;;13.71;78.21
72570;BME280;60594;50.204;8.844;2023-03-23T12:38:16;99240.59;;;13.55;78.71
72570;BME280;60594;50.204;8.844;2023-03-23T12:41:01;99231.06;;;13.37;78.75
72570;BME280;60594;50.204;8.844;2023-03-23T12:49:48;99222.88;;;13.46;79.86
72570;BME280;60594;50.204;8.844;2023-03-23T12:52:22;99207.81;;;13.45;79.91
72570;BME280;60594;50.204;8.844;2023-03-23T13:00:06;99208.84;;;13.60;79.44
72570;BME280;60594;50.204;8.844;2023-03-23T13:02:42;99204.31;;;13.61;79.31
72570;BME280;60594;50.204;8.844;2023-03-23T13:08:19;99211.69;;;13.67;77.19
72570;BME280;60594;50.204;8.844;2023-03-23T13:10:50;99223.72;;;13.71;77.95
72570;BME280;60594;50.204;8.844;2023-03-23T13:13:23;99225.41;;;13.72;77.96
72570;BME280;60594;50.204;8.844;2023-03-23T13:18:57;99221.72;;;13.57;78.22
72570;BME280;60594;50.204;8.844;2023-03-23T13:24:27;99190.06;;;13.44;78.62
72570;BME280;60594;50.204;8.844;2023-03-23T13:26:54;99203.66;;;13.59;77.64
72570;BME280;60594;50.204;8.844;2023-03-23T13:29:24;99193.59;;;13.53;77.21
72570;BME280;60594;50.204;8.844;2023-03-23T13:32:11;99198.28;;;13.75;76.61
72570;BME280;60594;50.204;8.844;2023-03-23T13:34:39;99197.81;;;13.72;76.28
72570;BME280;60594;50.204;8.844;2023-03-23T13:42:49;99216.19;;;13.99;75.14
72570;BME280;60594;50.204;8.844;2023-03-23T13:48:18;99191.91;;;14.08;76.48
72570;BME280;60594;50.204;8.844;2023-03-23T13:50:53;99195.25;;;14.34;75.40
72570;BME280;60594;50.204;8.844;2023-03-23T13:56:20;99179.50;;;14.15;75.09
72570;BME280;60594;50.204;8.844;2023-03-23T13:59:03;99182.50;;;14.20;76.25
72570;BME280;60594;50.204;8.844;2023-03-23T14:01:33;99171.66;;;14.06;76.39
72570;BME280;60594;50.204;8.844;2023-03-23T14:04:05;99176.50;;;14.18;76.34
72570;BME280;60594;50.204;8.844;2023-03-23T14:06:36;99180.03;;;14.27;75.34
72570;BME280;60594;50.204;8.844;2023-03-23T14:11:55;99163.59;;;14.38;75.70
72570;BME280;60594;50.204;8.844;2023-03-23T14:14:28;99178.53;;;14.24;75.09
72570;BME280;60594;50.204;8.844;2023-03-23T14:17:11;99162.25;;;14.18;74.59
72570;BME280;60594;50.204;8.844;2023-03-23T14:19:40;99181.69;;;14.20;74.84
72570;BME280;60594;50.204;8.844;2023-03-23T14:22:19;99178.53;;;14.24;74.46
72570;BME280;60594;50.204;8.844;2023-03-23T14:24:48;99186.22;;;14.27;74.27
72570;BME280;60594;50.204;8.844;2023-03-23T14:27:18;99183.50;;;14.19;73.68
72570;BME280;60594;50.204;8.844;2023-03-23T14:29:46;99192.91;;;14.15;75.42
72570;BME280;60594;50.204;8.844;2023-03-23T14:32:23;99201.28;;;14.12;76.10
72570;BME280;60594;50.204;8.844;2023-03-23T14:34:53;99212.34;;;13.93;76.47
72570;BME280;60594;50.204;8.844;2023-03-23T14:37:20;99212.19;;;13.95;76.05
72570;BME280;60594;50.204;8.844;2023-03-23T14:39:50;99193.13;;;13.82;76.54
72570;BME280;60594;50.204;8.844;2023-03-23T14:42:35;99197.97;;;13.86;76.74
72570;BME280;60594;50.204;8.844;2023-03-23T14:45:04;99191.44;;;13.97;75.79
72570;BME280;60594;50.204;8.844;2023-03-23T14:47:34;99198.78;;;13.95;76.49
72570;BME280;60594;50.204;8.844;2023-03-23T14:50:05;99189.09;;;13.94;76.40
72570;BME280;60594;50.204;8.844;2023-03-23T14:52:36;99190.75;;;13.95;76.55
72570;BME280;60594;50.204;8.844;2023-03-23T14:55:18;99195.59;;;14.07;76.00
72570;BME280;60594;50.204;8.844;2023-03-23T14:57:47;99204.31;;;14.01;75.62
72570;BME280;60594;50.204;8.844;2023-03-23T15:00:25;99193.94;;;14.06;75.73
72570;BME280;60594;50.204;8.844;2023-03-23T15:02:56;99193.56;;;14.09;76.10
72570;BME280;60594;50.204;8.844;2023-03-23T15:05:33;99194.28;;;13.95;76.83
72570;BME280;60594;50.204;8.844;2023-03-23T15:08:06;99201.97;;;13.90;77.17
72570;BME280;60594;50.204;8.844;2023-03-23T15:10:34;99187.22;;;13.94;76.94
72570;BME280;60594;50.204;8.844;2023-03-23T15:13:01;99190.06;;;13.93;77.85